Current | Forecast
Updated: 5:00 PM JST on June 29, 2017
Observed at Oshima Airport, Japan
Temperature 79°F
Humidity 69%
Dew Point 68°F
Wind SSW at 8 mph
Pressure 29.92 in (Falling)
Conditions Scattered Clouds
Visibility 6.2 miles
UV 1 out of 16
Clouds (FEW) : 1500 ft
Scattered Clouds (SCT) : 15000 ft
Yesterday's Maximum 73°F
Yesterday's Minimum 72°F approx.
Yesterday's Cooling Degree Days 8 approx.
Sunrise4:33 AM JST
Sunset6:57 PM JST
Moon Rise9:53 AM JST
Moon Set10:54 PM JST
Moon PhaseMoon Phase
Waxing Crescent
Raw METARMETAR RJTO 290800Z 21007KT 9999 FEW015 SCT150 BKN/// 26/20 Q1013


Monday
. High: 69° F.
Tuesday
. High: 71° F.
Wednesday
. High: 69° F.
Thursday
. High: 69° F.
Friday
. High: 68° F.
Saturday
. High: 69° F.
Sunday
. High: 68° F.
Monday
. High: 69° F.

Units: English | Metric

Find the Weather for any City, State or Zipcode, or Country:

U.S. State List | Severe Weather | Tropical Storms | Ski Conditions
United States | Canada | Central America | South America | Asia | Europe | Australia | Africa | Islands

Weather Underground

© Copyright 2017
The Weather Company, LLC